Time;durP1;ratioP1;P1;durP2;ratioP2;P2;SDS_P1;SDS_P2;PMS_P1;PMS_P2;Temp;Humidity;BMP_temperature;BMP_pressure;BME280_temperature;BME280_humidity;BME280_pressure;Samples;Min_cycle;Max_cycle;Signal;HPM_P1;HPM_P2
2022/01/09 00:08:32;;;;;;;;;;;6.10;99.90;;;;;;8406505;28;19927;-68
2022/01/09 00:12:34;;;;;;;;;;;6.10;99.90;;;;;;8403968;28;19952;-68
2022/01/09 00:16:35;;;;;;;;;;;6.20;99.90;;;;;;8402939;28;19925;-69
2022/01/09 00:20:38;;;;;;;;;;;6.20;99.90;;;;;;8391867;28;19933;-69
2022/01/09 00:24:39;;;;;;;;;;;6.30;99.90;;;;;;8406014;28;19925;-69
2022/01/09 00:28:41;;;;;;;;;;;6.30;99.90;;;;;;8414078;28;19959;-69
2022/01/09 00:32:43;;;;;;;;;;;6.40;99.90;;;;;;8431559;28;19959;-69
2022/01/09 00:36:44;;;;;;;;;;;6.40;99.90;;;;;;8425500;28;20401;-70
2022/01/09 00:40:46;;;;;;;;;;;6.40;99.90;;;;;;8427521;28;19971;-69
2022/01/09 00:44:48;;;;;;;;;;;6.50;99.90;;;;;;8412749;28;20367;-70
2022/01/09 00:48:49;;;;;;;;;;;6.50;99.90;;;;;;8407385;28;19924;-69
2022/01/09 00:52:51;;;;;;;;;;;6.50;99.90;;;;;;8427345;28;19928;-69
2022/01/09 00:56:53;;;;;;;;;;;6.50;99.90;;;;;;8425107;28;19967;-69
2022/01/09 01:00:54;;;;;;;;;;;6.50;99.90;;;;;;8427177;28;20364;-69
2022/01/09 01:04:56;;;;;;;;;;;6.50;99.90;;;;;;8428385;28;19931;-69
2022/01/09 01:08:58;;;;;;;;;;;6.50;99.90;;;;;;8412423;28;19939;-69
2022/01/09 01:12:59;;;;;;;;;;;6.60;99.90;;;;;;8406112;28;20376;-69
2022/01/09 01:17:01;;;;;;;;;;;6.50;99.90;;;;;;8425497;28;19963;-69
2022/01/09 01:21:03;;;;;;;;;;;6.60;99.90;;;;;;8421499;28;19946;-69
2022/01/09 01:25:05;;;;;;;;;;;6.60;99.90;;;;;;8423525;28;19932;-69
2022/01/09 01:29:07;;;;;;;;;;;6.60;99.90;;;;;;8421321;28;19950;-69
2022/01/09 01:33:09;;;;;;;;;;;6.60;99.90;;;;;;8401921;28;19964;-69
2022/01/09 01:37:10;;;;;;;;;;;6.50;99.90;;;;;;8420559;28;19924;-69
2022/01/09 01:41:12;;;;;;;;;;;6.60;99.90;;;;;;8427801;28;19931;-69
2022/01/09 01:45:14;;;;;;;;;;;6.60;99.90;;;;;;8425601;28;19970;-69
2022/01/09 01:49:16;;;;;;;;;;;6.60;99.90;;;;;;8428193;28;19924;-68
2022/01/09 01:53:20;;;;;;;;;;;6.60;99.90;;;;;;8427766;28;20007;-69
2022/01/09 01:57:21;;;;;;;;;;;6.60;99.90;;;;;;8397982;28;19963;-69
2022/01/09 02:01:23;;;;;;;;;;;6.60;99.90;;;;;;8414824;28;19975;-68
2022/01/09 02:05:25;;;;;;;;;;;6.60;99.90;;;;;;8418898;28;19924;-69
2022/01/09 02:09:27;;;;;;;;;;;6.60;99.90;;;;;;8425349;28;19924;-69
2022/01/09 02:13:29;;;;;;;;;;;6.60;99.90;;;;;;8426799;28;19967;-69
2022/01/09 02:17:30;;;;;;;;;;;6.60;99.90;;;;;;8426048;28;20009;-69
2022/01/09 02:21:32;;;;;;;;;;;6.60;99.90;;;;;;8409791;28;19928;-69
2022/01/09 02:25:35;;;;;;;;;;;6.60;99.90;;;;;;8398126;28;19944;-69
2022/01/09 02:29:36;;;;;;;;;;;6.70;99.90;;;;;;8422253;28;20007;-70
2022/01/09 02:33:38;;;;;;;;;;;6.70;99.90;;;;;;8400036;28;19928;-70
2022/01/09 02:37:39;;;;;;;;;;;6.70;99.90;;;;;;8424853;28;19924;-70
2022/01/09 02:41:41;;;;;;;;;;;6.80;99.90;;;;;;8425741;28;20608;-69
2022/01/09 02:45:45;;;;;;;;;;;6.80;99.90;;;;;;8424502;28;19967;-69
2022/01/09 02:49:50;;;;;;;;;;;6.80;99.90;;;;;;8424051;28;20303;-69
2022/01/09 02:53:57;;;;;;;;;;;6.80;99.90;;;;;;8406162;28;19939;-69
2022/01/09 02:57:59;;;;;;;;;;;6.80;99.90;;;;;;8423342;28;19931;-69
2022/01/09 03:02:01;;;;;;;;;;;6.80;99.90;;;;;;8420982;28;19932;-69
2022/01/09 03:06:03;;;;;;;;;;;6.80;99.90;;;;;;8407043;28;19924;-69
2022/01/09 03:10:05;;;;;;;;;;;6.80;99.90;;;;;;8407887;28;20008;-69
2022/01/09 03:14:07;;;;;;;;;;;6.70;99.90;;;;;;8426150;28;19932;-69
2022/01/09 03:18:10;;;;;;;;;;;6.70;99.90;;;;;;8420546;28;19925;-70
2022/01/09 03:22:12;;;;;;;;;;;6.70;99.90;;;;;;8425901;28;19931;-69
2022/01/09 03:26:13;;;;;;;;;;;6.70;99.90;;;;;;8425036;28;20379;-69
2022/01/09 03:30:16;;;;;;;;;;;6.70;99.90;;;;;;8424930;28;19924;-69
2022/01/09 03:34:17;;;;;;;;;;;6.70;99.90;;;;;;8426389;28;19924;-69
2022/01/09 03:38:19;;;;;;;;;;;6.70;99.90;;;;;;8423017;28;19956;-69
2022/01/09 03:42:20;;;;;;;;;;;6.70;99.90;;;;;;8407315;28;20038;-69
2022/01/09 03:46:22;;;;;;;;;;;6.60;99.90;;;;;;8422318;28;20390;-69
2022/01/09 03:50:24;;;;;;;;;;;6.60;99.90;;;;;;8431507;28;19924;-70
2022/01/09 03:54:26;;;;;;;;;;;6.60;99.90;;;;;;8426722;28;19924;-69
2022/01/09 03:58:27;;;;;;;;;;;6.50;99.90;;;;;;8424953;28;20375;-69
2022/01/09 04:02:29;;;;;;;;;;;6.50;99.90;;;;;;8398557;28;19924;-69
2022/01/09 04:06:30;;;;;;;;;;;6.50;99.90;;;;;;8426644;28;19973;-69
2022/01/09 04:10:39;;;;;;;;;;;6.40;99.90;;;;;;8427925;28;19935;-69
2022/01/09 04:14:45;;;;;;;;;;;6.40;99.90;;;;;;8404700;28;20359;-69
2022/01/09 04:18:48;;;;;;;;;;;6.40;99.90;;;;;;8429002;28;20405;-69
2022/01/09 04:22:50;;;;;;;;;;;6.40;99.90;;;;;;8430391;28;20390;-69
2022/01/09 04:26:52;;;;;;;;;;;6.30;99.90;;;;;;8417338;28;20356;-69
2022/01/09 04:30:53;;;;;;;;;;;6.30;99.90;;;;;;8430427;28;20044;-69
2022/01/09 04:34:55;;;;;;;;;;;6.20;99.90;;;;;;8427636;28;20015;-69
2022/01/09 04:38:57;;;;;;;;;;;6.20;99.90;;;;;;8420852;28;19963;-69
2022/01/09 04:43:01;;;;;;;;;;;6.20;99.90;;;;;;8409883;28;19975;-69
2022/01/09 04:47:08;;;;;;;;;;;6.20;99.90;;;;;;8429236;28;19971;-69
2022/01/09 04:51:12;;;;;;;;;;;6.10;99.90;;;;;;8430334;28;19928;-70
2022/01/09 04:55:13;;;;;;;;;;;6.10;99.90;;;;;;8426987;28;19968;-69
2022/01/09 04:59:15;;;;;;;;;;;6.10;99.90;;;;;;8427061;28;19931;-69
2022/01/09 05:03:19;;;;;;;;;;;6.10;99.90;;;;;;8423060;28;20348;-69
2022/01/09 05:07:21;;;;;;;;;;;6.10;99.90;;;;;;8422016;28;20279;-69
2022/01/09 05:11:23;;;;;;;;;;;6.10;99.90;;;;;;8417303;28;19932;-69
2022/01/09 05:15:24;;;;;;;;;;;6.10;99.90;;;;;;8406367;28;19924;-69
2022/01/09 05:19:31;;;;;;;;;;;6.10;99.90;;;;;;8427142;28;19924;-69
2022/01/09 05:23:33;;;;;;;;;;;6.10;99.90;;;;;;8405096;28;19924;-69
2022/01/09 05:27:35;;;;;;;;;;;6.10;99.90;;;;;;8428485;28;19975;-69
2022/01/09 05:31:37;;;;;;;;;;;6.10;99.90;;;;;;8407637;28;19924;-69
2022/01/09 05:35:39;;;;;;;;;;;6.00;99.90;;;;;;8424848;28;19943;-69
2022/01/09 05:39:41;;;;;;;;;;;6.00;99.90;;;;;;8405411;28;19924;-69
2022/01/09 05:43:42;;;;;;;;;;;6.00;99.90;;;;;;8410278;28;20332;-69
2022/01/09 05:47:44;;;;;;;;;;;6.00;99.90;;;;;;8426119;28;19949;-69
2022/01/09 05:51:46;;;;;;;;;;;5.90;99.90;;;;;;8427818;28;19928;-69
2022/01/09 05:55:48;;;;;;;;;;;5.90;99.90;;;;;;8403038;28;19935;-69
2022/01/09 05:59:49;;;;;;;;;;;5.80;99.90;;;;;;8425170;28;20359;-69
2022/01/09 06:03:51;;;;;;;;;;;5.70;99.90;;;;;;8410890;28;19928;-69
2022/01/09 06:07:52;;;;;;;;;;;5.70;99.90;;;;;;8403618;28;19928;-69
2022/01/09 06:11:54;;;;;;;;;;;5.60;99.90;;;;;;8418722;28;19928;-69
2022/01/09 06:15:55;;;;;;;;;;;5.60;99.90;;;;;;8423587;28;19967;-69
2022/01/09 06:19:57;;;;;;;;;;;5.60;99.90;;;;;;8404383;28;19932;-69
2022/01/09 06:23:59;;;;;;;;;;;5.50;99.90;;;;;;8424843;28;19928;-69
2022/01/09 06:28:00;;;;;;;;;;;5.50;99.90;;;;;;8426030;28;19955;-69
2022/01/09 06:32:02;;;;;;;;;;;5.50;99.90;;;;;;8420841;28;19936;-69
2022/01/09 06:36:03;;;;;;;;;;;5.50;99.90;;;;;;8420682;28;19924;-69
2022/01/09 06:40:05;;;;;;;;;;;5.50;99.90;;;;;;8422537;28;19931;-69
2022/01/09 06:44:07;;;;;;;;;;;5.50;99.90;;;;;;8421879;28;19931;-68
2022/01/09 06:48:09;;;;;;;;;;;5.40;99.90;;;;;;8404335;28;20404;-69
2022/01/09 06:52:10;;;;;;;;;;;5.40;99.90;;;;;;8422304;28;19931;-69
2022/01/09 06:56:12;;;;;;;;;;;5.40;99.90;;;;;;8424036;28;19967;-68
2022/01/09 07:00:17;;;;;;;;;;;5.30;99.90;;;;;;8419012;28;19924;-69
2022/01/09 07:04:18;;;;;;;;;;;5.30;99.90;;;;;;8411302;28;19981;-69
2022/01/09 07:08:20;;;;;;;;;;;5.20;99.90;;;;;;8418435;28;19933;-69
2022/01/09 07:12:21;;;;;;;;;;;5.20;99.90;;;;;;8409163;28;19924;-69
2022/01/09 07:16:23;;;;;;;;;;;5.20;99.90;;;;;;8404299;28;19924;-69
2022/01/09 07:20:25;;;;;;;;;;;5.20;99.90;;;;;;8408773;28;19940;-69
2022/01/09 07:24:26;;;;;;;;;;;5.10;99.90;;;;;;8428941;28;19945;-69
2022/01/09 07:28:28;;;;;;;;;;;5.10;99.90;;;;;;8417886;28;19978;-69
2022/01/09 07:32:29;;;;;;;;;;;5.10;99.90;;;;;;8397434;28;19924;-69
2022/01/09 07:36:31;;;;;;;;;;;5.10;99.90;;;;;;8402496;28;19985;-69
2022/01/09 07:40:33;;;;;;;;;;;5.10;99.90;;;;;;8387659;28;20304;-69
2022/01/09 07:44:34;;;;;;;;;;;5.00;99.90;;;;;;8389698;28;19939;-69
2022/01/09 07:48:36;;;;;;;;;;;5.00;99.90;;;;;;8404365;28;20391;-69
2022/01/09 07:52:38;;;;;;;;;;;5.00;99.90;;;;;;8404465;28;19963;-69
2022/01/09 07:56:40;;;;;;;;;;;5.00;99.90;;;;;;8404766;28;20019;-69
2022/01/09 08:00:43;;;;;;;;;;;5.00;99.90;;;;;;8387875;28;19971;-69
2022/01/09 08:04:45;;;;;;;;;;;5.00;99.90;;;;;;8391207;28;19975;-69
2022/01/09 08:08:46;;;;;;;;;;;5.00;99.90;;;;;;8393786;28;19998;-69
2022/01/09 08:12:48;;;;;;;;;;;5.00;99.90;;;;;;8395824;28;19931;-69
2022/01/09 08:16:49;;;;;;;;;;;5.00;99.90;;;;;;8405366;28;20300;-69
2022/01/09 08:20:51;;;;;;;;;;;5.00;99.90;;;;;;8393272;28;20410;-69
2022/01/09 08:24:54;;;;;;;;;;;5.10;99.90;;;;;;8402509;28;19939;-69
2022/01/09 08:28:55;;;;;;;;;;;5.10;99.90;;;;;;8409419;28;19971;-69
2022/01/09 08:32:57;;;;;;;;;;;5.20;99.90;;;;;;8401742;28;19964;-69
2022/01/09 08:36:59;;;;;;;;;;;5.20;99.90;;;;;;8400963;28;20502;-70
2022/01/09 08:41:00;;;;;;;;;;;5.20;99.90;;;;;;8397865;28;19928;-69
2022/01/09 08:45:03;;;;;;;;;;;5.20;99.90;;;;;;8385609;28;19963;-69
2022/01/09 08:49:05;;;;;;;;;;;5.20;99.90;;;;;;8405623;28;19931;-69
2022/01/09 08:53:06;;;;;;;;;;;5.30;99.90;;;;;;8405428;28;19967;-69
2022/01/09 08:57:08;;;;;;;;;;;5.30;99.90;;;;;;8405123;28;19978;-69
2022/01/09 09:01:09;;;;;;;;;;;5.40;99.90;;;;;;8396872;28;19971;-69
2022/01/09 09:05:11;;;;;;;;;;;5.60;99.90;;;;;;8405228;28;20055;-69
2022/01/09 09:09:12;;;;;;;;;;;5.80;99.90;;;;;;8394666;28;19971;-69
2022/01/09 09:13:14;;;;;;;;;;;5.90;99.90;;;;;;8394015;28;19935;-69
2022/01/09 09:17:16;;;;;;;;;;;6.00;99.90;;;;;;8405712;28;19959;-69
2022/01/09 09:21:17;;;;;;;;;;;6.00;99.90;;;;;;8406851;28;19924;-68
2022/01/09 09:25:19;;;;;;;;;;;6.00;99.90;;;;;;8405986;28;19972;-69
2022/01/09 09:29:21;;;;;;;;;;;6.10;99.90;;;;;;8400656;28;20011;-69
2022/01/09 09:33:22;;;;;;;;;;;6.10;99.90;;;;;;8397247;28;19928;-69
2022/01/09 09:37:26;;;;;;;;;;;6.10;99.90;;;;;;8382886;28;19967;-69
2022/01/09 09:41:28;;;;;;;;;;;6.20;99.90;;;;;;8402448;28;19939;-70
2022/01/09 09:45:30;;;;;;;;;;;6.20;99.90;;;;;;8415642;28;19967;-69
2022/01/09 09:49:31;;;;;;;;;;;6.40;99.90;;;;;;8394447;28;19980;-69
2022/01/09 09:53:33;;;;;;;;;;;6.60;99.90;;;;;;8391070;28;19959;-69
2022/01/09 09:57:35;;;;;;;;;;;6.70;99.90;;;;;;8396623;28;20605;-69
2022/01/09 10:01:36;;;;;;;;;;;6.70;99.90;;;;;;8400447;28;19960;-69
2022/01/09 10:05:38;;;;;;;;;;;6.70;99.90;;;;;;8386206;28;19940;-69
2022/01/09 10:09:50;;;;;;;;;;;6.90;99.90;;;;;;8371166;28;19962;-69
2022/01/09 10:14:09;;;;;;;;;;;7.20;99.90;;;;;;8375160;28;20383;-69
2022/01/09 10:18:11;;;;;;;;;;;7.50;99.90;;;;;;8402813;28;19925;-69
2022/01/09 10:22:36;;;;;;;;;;;7.60;99.90;;;;;;8396693;28;19932;-69
2022/01/09 10:26:39;;;;;;;;;;;7.60;99.90;;;;;;8381405;28;19932;-69
2022/01/09 10:30:45;;;;;;;;;;;7.50;99.90;;;;;;8385441;28;19935;-68
2022/01/09 10:35:03;;;;;;;;;;;7.30;99.90;;;;;;8387126;28;19920;-69
2022/01/09 10:39:06;;;;;;;;;;;7.10;99.90;;;;;;8381463;28;19951;-69
2022/01/09 10:43:19;;;;;;;;;;;7.00;99.90;;;;;;8389699;28;19924;-69
2022/01/09 10:47:20;;;;;;;;;;;7.30;99.90;;;;;;8391600;28;19959;-69
2022/01/09 10:51:25;;;;;;;;;;;7.50;99.90;;;;;;8388817;28;19959;-69
2022/01/09 10:55:30;;;;;;;;;;;7.40;99.90;;;;;;8385985;28;19921;-69
2022/01/09 10:59:31;;;;;;;;;;;7.20;99.90;;;;;;8382243;28;19991;-69
2022/01/09 11:03:33;;;;;;;;;;;7.00;99.90;;;;;;8394036;28;19960;-69
2022/01/09 11:07:36;;;;;;;;;;;6.90;99.90;;;;;;8383697;28;20033;-69
2022/01/09 11:11:39;;;;;;;;;;;6.90;99.90;;;;;;8384970;28;19955;-69
2022/01/09 11:16:32;;;;;;;;;;;7.00;99.90;;;;;;8386824;28;19924;-69
2022/01/09 11:20:03;;;;;;;;;;;7.10;99.90;;;;;;8387628;28;20315;-69
2022/01/09 11:24:20;;;;;;;;;;;7.50;99.90;;;;;;8383710;28;19967;-69
2022/01/09 11:28:27;;;;;;;;;;;7.50;99.90;;;;;;8389010;28;19963;-69
2022/01/09 11:32:32;;;;;;;;;;;7.30;99.90;;;;;;8389718;28;19935;-69
2022/01/09 11:36:52;;;;;;;;;;;7.30;99.90;;;;;;8387222;28;19920;-69
2022/01/09 11:40:54;;;;;;;;;;;7.20;99.90;;;;;;8385842;28;19924;-69
2022/01/09 11:44:56;;;;;;;;;;;7.40;99.90;;;;;;8383916;28;19920;-69
2022/01/09 11:48:59;;;;;;;;;;;7.80;99.90;;;;;;8391930;28;19955;-69
2022/01/09 11:53:01;;;;;;;;;;;8.50;99.90;;;;;;8386855;28;19927;-69
2022/01/09 11:57:06;;;;;;;;;;;9.40;99.90;;;;;;8390452;28;19968;-69
2022/01/09 12:01:34;;;;;;;;;;;10.00;99.90;;;;;;8385557;28;19959;-70
2022/01/09 12:05:55;;;;;;;;;;;10.40;99.90;;;;;;8384878;28;19928;-69
2022/01/09 12:09:57;;;;;;;;;;;10.30;99.90;;;;;;8382835;28;20031;-69
2022/01/09 12:13:58;;;;;;;;;;;9.80;99.90;;;;;;8385969;28;20417;-69
2022/01/09 12:18:03;;;;;;;;;;;9.20;99.90;;;;;;8391081;28;20003;-69
2022/01/09 12:22:05;;;;;;;;;;;9.50;99.90;;;;;;8394261;28;19947;-69
2022/01/09 12:26:24;;;;;;;;;;;10.00;99.90;;;;;;8391273;28;19942;-69
2022/01/09 12:30:41;;;;;;;;;;;9.90;99.90;;;;;;8391015;28;20353;-69
2022/01/09 12:34:51;;;;;;;;;;;10.00;99.90;;;;;;8374043;28;19920;-70
2022/01/09 12:38:57;;;;;;;;;;;10.40;99.90;;;;;;8394544;28;20813;-69
2022/01/09 12:42:59;;;;;;;;;;;10.80;99.90;;;;;;8384084;28;19920;-69
2022/01/09 12:47:01;;;;;;;;;;;11.20;99.90;;;;;;8392281;28;19931;-69
2022/01/09 12:51:15;;;;;;;;;;;11.50;99.90;;;;;;8391007;28;19959;-69
2022/01/09 12:55:17;;;;;;;;;;;11.70;99.90;;;;;;8398860;28;19920;-69
2022/01/09 12:59:38;;;;;;;;;;;12.00;99.90;;;;;;8392204;28;19981;-69
2022/01/09 13:03:40;;;;;;;;;;;12.40;99.90;;;;;;8372543;28;19925;-69
2022/01/09 13:07:42;;;;;;;;;;;12.50;99.90;;;;;;8392563;28;19924;-70
2022/01/09 13:11:44;;;;;;;;;;;12.40;99.90;;;;;;8386985;28;20392;-69
2022/01/09 13:16:10;;;;;;;;;;;12.10;99.90;;;;;;8385940;28;20244;-69
2022/01/09 13:20:19;;;;;;;;;;;11.90;99.90;;;;;;8396607;28;20136;-69
2022/01/09 13:24:22;;;;;;;;;;;12.30;99.90;;;;;;8387950;28;20383;-69
2022/01/09 13:28:24;;;;;;;;;;;12.50;99.90;;;;;;8388060;28;19956;-69
2022/01/09 13:32:25;;;;;;;;;;;12.00;99.90;;;;;;8387022;28;19920;-70
2022/01/09 13:36:31;;;;;;;;;;;11.00;99.90;;;;;;8390138;28;20066;-69
2022/01/09 13:40:33;;;;;;;;;;;10.30;99.90;;;;;;8389383;28;19947;-69
2022/01/09 13:44:36;;;;;;;;;;;10.10;99.90;;;;;;8389151;28;20288;-70
2022/01/09 13:48:49;;;;;;;;;;;9.60;99.90;;;;;;8389731;28;19956;-69
2022/01/09 13:52:52;;;;;;;10.68;2.00;;;9.20;99.90;;;;;;8389036;28;20383;-69
2022/01/09 13:57:12;;;;;;;9.50;1.92;;;8.90;99.90;;;;;;8387581;28;20051;-69
2022/01/09 14:01:14;;;;;;;6.43;1.48;;;8.60;99.90;;;;;;8406683;28;20049;-69
2022/01/09 14:05:20;;;;;;;4.43;1.50;;;8.50;99.90;;;;;;8387503;28;20128;-69
2022/01/09 14:09:26;;;;;;;5.47;1.30;;;8.50;99.90;;;;;;8388967;28;20052;-69
2022/01/09 14:13:36;;;;;;;5.25;1.60;;;8.50;99.90;;;;;;8368567;28;20045;-69
2022/01/09 14:17:42;;;;;;;5.40;1.42;;;8.40;99.90;;;;;;8384800;28;20071;-69
2022/01/09 14:21:57;;;;;;;6.05;1.60;;;8.30;99.90;;;;;;8389090;28;20077;-69
2022/01/09 14:26:09;;;;;;;5.30;1.55;;;8.40;99.90;;;;;;8394238;28;20087;-69
2022/01/09 14:30:33;;;;;;;4.47;1.50;;;8.40;99.90;;;;;;8385766;28;20536;-70
2022/01/09 14:34:40;;;;;;;5.78;1.60;;;8.40;99.90;;;;;;8388169;28;20095;-69
2022/01/09 14:38:53;;;;;;;;;;;8.30;99.90;;;;;;8384799;28;20040;-69
2022/01/09 14:42:54;;;;;;;;;;;8.10;99.90;;;;;;8385194;28;19920;-69
2022/01/09 14:46:56;;;;;;;;;;;8.00;99.90;;;;;;8387839;28;19986;-69
2022/01/09 14:50:58;;;;;;;;;;;7.90;99.90;;;;;;8390628;28;19952;-69
2022/01/09 14:55:01;;;;;;;;;;;7.80;99.90;;;;;;8388945;28;19924;-70
2022/01/09 14:59:02;;;;;;;;;;;7.80;99.90;;;;;;8391145;28;19924;-69
2022/01/09 15:03:04;;;;;;;;;;;8.30;99.90;;;;;;8381203;28;19921;-69
2022/01/09 15:07:06;;;;;;;;;;;8.80;99.90;;;;;;8384195;28;20101;-69
2022/01/09 15:11:07;;;;;;;;;;;9.20;99.90;;;;;;8368293;28;19960;-70
2022/01/09 15:15:10;;;;;;;;;;;9.40;99.90;;;;;;8387846;28;19921;-69
2022/01/09 15:19:11;;;;;;;;;;;9.50;99.90;;;;;;8385592;28;20023;-69
2022/01/09 15:23:13;;;;;;;;;;;9.40;99.90;;;;;;8384906;28;19964;-69
2022/01/09 15:27:15;;;;;;;;;;;9.20;99.90;;;;;;8390433;28;20015;-69
2022/01/09 15:31:16;;;;;;;;;;;9.00;99.90;;;;;;8384831;28;20265;-69
2022/01/09 15:35:18;;;;;;;;;;;8.60;99.90;;;;;;8389879;28;19960;-69
2022/01/09 15:39:20;;;;;;;;;;;8.40;99.90;;;;;;8390958;28;19963;-69
2022/01/09 15:43:21;;;;;;;;;;;8.10;99.90;;;;;;8393237;28;19983;-69
2022/01/09 15:47:23;;;;;;;;;;;7.90;99.90;;;;;;8391763;28;19924;-69
2022/01/09 15:51:29;;;;;;;;;;;7.70;99.90;;;;;;8400886;28;19920;-69
2022/01/09 15:55:30;;;;;;;;;;;7.60;99.90;;;;;;8399068;28;19926;-69
2022/01/09 15:59:35;;;;;;;;;;;7.40;99.90;;;;;;8390321;28;20395;-69
2022/01/09 16:03:37;;;;;;;;;;;7.30;99.90;;;;;;8392147;28;20404;-69
2022/01/09 16:07:39;;;;;;;;;;;7.20;99.90;;;;;;8394166;28;19965;-69
2022/01/09 16:11:41;;;;;;;;;;;7.10;99.90;;;;;;8391728;28;19947;-69
2022/01/09 16:15:42;;;;;;;;;;;7.00;99.90;;;;;;8391916;28;19936;-69
2022/01/09 16:19:44;;;;;;;;;;;6.80;99.90;;;;;;8393147;28;20015;-69
2022/01/09 16:23:46;;;;;;;;;;;6.70;99.90;;;;;;8393280;28;20019;-69
2022/01/09 16:27:48;;;;;;;;;;;6.60;99.90;;;;;;8392213;28;19959;-70
2022/01/09 16:31:50;;;;;;;;;;;6.50;99.90;;;;;;8374663;28;19936;-69
2022/01/09 16:35:55;;;;;;;;;;;6.40;99.90;;;;;;8383700;28;19978;-69
2022/01/09 16:39:56;;;;;;;;;;;6.30;99.90;;;;;;8390048;28;19971;-69
2022/01/09 16:43:58;;;;;;;;;;;6.30;99.90;;;;;;8392300;28;19928;-69
2022/01/09 16:48:01;;;;;;;;;;;6.20;99.90;;;;;;8391042;28;19966;-69
2022/01/09 16:52:02;;;;;;;;;;;6.10;99.90;;;;;;8390951;28;19920;-69
2022/01/09 16:56:04;;;;;;;;;;;6.00;99.90;;;;;;8385844;28;19967;-69
2022/01/09 17:00:06;;;;;;;;;;;6.00;99.90;;;;;;8387039;28;19959;-69
2022/01/09 17:04:08;;;;;;;;;;;5.90;99.90;;;;;;8392315;28;20370;-69
2022/01/09 17:08:11;;;;;;;;;;;5.80;99.90;;;;;;8368683;28;20321;-69
2022/01/09 17:12:13;;;;;;;;;;;5.80;99.90;;;;;;8388756;28;20368;-69
2022/01/09 17:16:14;;;;;;;;;;;5.70;99.90;;;;;;8371366;28;20150;-69
2022/01/09 17:20:16;;;;;;;;;;;5.70;99.90;;;;;;8383657;28;19924;-69
2022/01/09 17:24:18;;;;;;;;;;;5.60;99.90;;;;;;8373259;28;20359;-69
2022/01/09 17:28:20;;;;;;;;;;;5.50;99.90;;;;;;8392514;28;19975;-68
2022/01/09 17:32:22;;;;;;;;;;;5.40;99.90;;;;;;8371341;28;19920;-68
2022/01/09 17:36:25;;;;;;;;;;;5.40;99.90;;;;;;8389264;28;19921;-69
2022/01/09 17:40:26;;;;;;;;;;;5.30;99.90;;;;;;8390996;28;20335;-68
2022/01/09 17:44:28;;;;;;;;;;;5.20;99.90;;;;;;8373519;28;19924;-68
2022/01/09 17:48:30;;;;;;;;;;;5.20;99.90;;;;;;8371310;28;20034;-68
2022/01/09 17:52:32;;;;;;;;;;;5.10;99.90;;;;;;8389686;28;19924;-68
2022/01/09 17:56:33;;;;;;;;;;;5.10;99.90;;;;;;8392312;28;20022;-69
2022/01/09 18:00:35;;;;;;;;;;;5.00;99.90;;;;;;8387599;28;20325;-69
2022/01/09 18:04:36;;;;;;;;;;;5.00;99.90;;;;;;8396390;28;19924;-69
2022/01/09 18:08:38;;;;;;;;;;;4.90;99.90;;;;;;8392079;28;19921;-69
2022/01/09 18:12:40;;;;;;;;;;;4.90;99.90;;;;;;8389685;28;19978;-69
2022/01/09 18:16:41;;;;;;;;;;;4.80;99.90;;;;;;8390825;28;20319;-69
2022/01/09 18:20:43;;;;;;;;;;;4.70;99.90;;;;;;8370731;28;19935;-69
2022/01/09 18:24:45;;;;;;;;;;;4.60;99.90;;;;;;8394646;28;19971;-69
2022/01/09 18:28:50;;;;;;;;;;;4.60;99.90;;;;;;8384788;28;20402;-68
2022/01/09 18:32:52;;;;;;;;;;;4.50;99.90;;;;;;8385969;28;20321;-69
2022/01/09 18:36:54;;;;;;;;;;;4.50;99.90;;;;;;8387606;28;19931;-69
2022/01/09 18:40:55;;;;;;;;;;;4.50;99.90;;;;;;8390998;28;20074;-69
2022/01/09 18:45:00;;;;;;;;;;;4.50;99.90;;;;;;8372996;28;19967;-69
2022/01/09 18:49:02;;;;;;;;;;;4.40;99.90;;;;;;8389887;28;19960;-68
2022/01/09 18:53:04;;;;;;;;;;;4.40;99.90;;;;;;8391724;28;20022;-69
2022/01/09 18:57:06;;;;;;;;;;;4.40;99.90;;;;;;8390435;28;20386;-69
2022/01/09 19:01:08;;;;;;;;;;;4.40;99.90;;;;;;8389095;28;19955;-69
2022/01/09 19:05:10;;;;;;;;;;;4.40;99.90;;;;;;8392805;28;19975;-70
2022/01/09 19:09:12;;;;;;;;;;;4.30;99.90;;;;;;8368071;28;19962;-69
2022/01/09 19:13:13;;;;;;;;;;;4.20;99.90;;;;;;8370149;28;20387;-69
2022/01/09 19:17:15;;;;;;;;;;;4.20;99.90;;;;;;8385171;28;19928;-69
2022/01/09 19:21:16;;;;;;;;;;;4.10;99.90;;;;;;8391327;28;20045;-69
2022/01/09 19:25:18;;;;;;;;;;;4.00;99.90;;;;;;8386868;28;20356;-69
2022/01/09 19:29:20;;;;;;;;;;;4.00;99.90;;;;;;8388554;28;20217;-69
2022/01/09 19:33:22;;;;;;;;;;;3.90;99.90;;;;;;8385730;28;19943;-69
2022/01/09 19:37:24;;;;;;;;;;;3.90;99.90;;;;;;8394897;28;20192;-70
2022/01/09 19:41:25;;;;;;;;;;;3.90;99.90;;;;;;8386822;28;20023;-69
2022/01/09 19:45:27;;;;;;;;;;;3.80;99.90;;;;;;8387458;28;19980;-69
2022/01/09 19:49:29;;;;;;;;;;;3.70;99.90;;;;;;8385862;28;19964;-69
2022/01/09 19:53:31;;;;;;;;;;;3.60;99.90;;;;;;8368383;28;19928;-69
2022/01/09 19:57:35;;;;;;;;;;;3.50;99.90;;;;;;8387586;28;19960;-69
2022/01/09 20:01:38;;;;;;;;;;;3.40;99.90;;;;;;8369605;28;20306;-69
2022/01/09 20:05:40;;;;;;;;;;;3.20;99.90;;;;;;8386193;28;19963;-69
2022/01/09 20:09:42;;;;;;;;;;;3.10;99.90;;;;;;8384885;28;19928;-69
2022/01/09 20:13:48;;;;;;;;;;;3.00;99.90;;;;;;8370900;28;19920;-70
2022/01/09 20:17:51;;;;;;;;;;;3.00;99.90;;;;;;8386959;28;20288;-69
2022/01/09 20:21:53;;;;;;;;;;;2.90;99.90;;;;;;8391196;28;19967;-69
2022/01/09 20:25:58;;;;;;;;;;;2.90;99.90;;;;;;8397011;28;19928;-69
2022/01/09 20:30:00;;;;;;;;;;;2.90;99.90;;;;;;8397782;28;19968;-69
2022/01/09 20:34:04;;;;;;;;;;;2.90;99.90;;;;;;8376983;28;19924;-68
2022/01/09 20:38:06;;;;;;;;;;;2.80;99.90;;;;;;8386010;28;19920;-69
2022/01/09 20:42:07;;;;;;;;;;;2.80;99.90;;;;;;8390041;28;19951;-69
2022/01/09 20:46:10;;;;;;;;;;;2.70;99.90;;;;;;8372153;28;19966;-69
2022/01/09 20:50:12;;;;;;;;;;;2.70;99.90;;;;;;8378800;28;19932;-69
2022/01/09 20:54:13;;;;;;;;;;;2.70;99.90;;;;;;8389483;28;19952;-69
2022/01/09 20:58:15;;;;;;;;;;;2.70;99.90;;;;;;8387621;28;19959;-68
2022/01/09 21:02:17;;;;;;;;;;;2.70;99.90;;;;;;8392731;28;19955;-69
2022/01/09 21:06:19;;;;;;;;;;;2.70;99.90;;;;;;8386927;28;19970;-69
2022/01/09 21:10:20;;;;;;;;;;;2.70;99.90;;;;;;8389860;28;20301;-69
2022/01/09 21:14:22;;;;;;;;;;;2.70;99.90;;;;;;8390612;28;19921;-70
2022/01/09 21:18:24;;;;;;;;;;;2.60;99.90;;;;;;8390812;28;20023;-69
2022/01/09 21:22:25;;;;;;;;;;;2.60;99.90;;;;;;8386982;28;20018;-68
2022/01/09 21:26:27;;;;;;;;;;;2.60;99.90;;;;;;8390713;28;20140;-68
2022/01/09 21:30:29;;;;;;;;;;;2.50;99.90;;;;;;8386128;28;19928;-69
2022/01/09 21:34:31;;;;;;;;;;;2.40;99.90;;;;;;8387146;28;19967;-69
2022/01/09 21:38:51;;;;;;;;;;;2.40;99.90;;;;;;8371192;28;19939;-69
2022/01/09 21:42:53;;;;;;;;;;;2.30;99.90;;;;;;8370855;28;20371;-69
2022/01/09 21:46:55;;;;;;;;;;;2.30;99.90;;;;;;8388600;28;20388;-68
2022/01/09 21:50:57;;;;;;;;;;;2.20;99.90;;;;;;8385346;28;19963;-70
2022/01/09 21:54:58;;;;;;;;;;;2.10;99.90;;;;;;8387633;28;19960;-69
2022/01/09 21:59:00;;;;;;;;;;;2.10;99.90;;;;;;8385582;28;19959;-69
2022/01/09 22:03:03;;;;;;;;;;;2.00;99.90;;;;;;8396427;28;21272;-68
2022/01/09 22:07:06;;;;;;;;;;;1.90;99.90;;;;;;8415700;28;19950;-68
2022/01/09 22:11:09;;;;;;;;;;;1.80;99.90;;;;;;8413206;28;19980;-68
2022/01/09 22:15:11;;;;;;;;;;;1.80;99.90;;;;;;8419532;28;19931;-69
2022/01/09 22:19:13;;;;;;;;;;;1.70;99.90;;;;;;8416106;28;19924;-68
2022/01/09 22:23:14;;;;;;;;;;;1.70;99.90;;;;;;8413047;28;20291;-69
2022/01/09 22:27:16;;;;;;;;;;;1.60;99.90;;;;;;8410866;28;19948;-68
2022/01/09 22:31:18;;;;;;;;;;;1.60;99.90;;;;;;8386736;28;20368;-68
2022/01/09 22:35:20;;;;;;;;;;;1.60;99.90;;;;;;8419516;28;19946;-68
2022/01/09 22:39:22;;;;;;;;;;;1.50;99.90;;;;;;8415060;28;19964;-68
2022/01/09 22:43:23;;;;;;;;;;;1.50;99.90;;;;;;8402542;28;19983;-68
2022/01/09 22:47:25;;;;;;;;;;;1.40;99.90;;;;;;8409711;28;19931;-68
2022/01/09 22:51:26;;;;;;;;;;;1.40;99.90;;;;;;8408424;28;19931;-69
2022/01/09 22:55:28;;;;;;;;;;;1.30;99.90;;;;;;8415053;28;19924;-69
2022/01/09 22:59:30;;;;;;;;;;;1.30;99.90;;;;;;8413204;28;19931;-69
2022/01/09 23:03:32;;;;;;;;;;;1.30;99.90;;;;;;8413852;28;20320;-68
2022/01/09 23:07:34;;;;;;;;;;;1.30;99.90;;;;;;8420581;28;19931;-68
2022/01/09 23:11:36;;;;;;;;;;;1.20;99.90;;;;;;8385727;28;19928;-68
2022/01/09 23:15:38;;;;;;;;;;;1.20;99.90;;;;;;8409673;28;20245;-68
2022/01/09 23:19:39;;;;;;;;;;;1.20;99.90;;;;;;8407568;28;19967;-69
2022/01/09 23:23:41;;;;;;;;;;;1.10;99.90;;;;;;8415995;28;19924;-68
2022/01/09 23:27:43;;;;;;;;;;;1.10;99.90;;;;;;8412001;28;19924;-69
2022/01/09 23:31:44;;;;;;;;;;;1.10;99.90;;;;;;8415068;28;20398;-68
2022/01/09 23:35:46;;;;;;;;;;;1.10;99.90;;;;;;8409276;28;19979;-69
2022/01/09 23:39:48;;;;;;;;;;;1.00;99.90;;;;;;8384815;28;19978;-68
2022/01/09 23:43:50;;;;;;;;;;;1.00;99.90;;;;;;8403933;28;19963;-69
2022/01/09 23:48:01;;;;;;;;;;;1.00;99.90;;;;;;8392977;28;19928;-68
2022/01/09 23:52:03;;;;;;;;;;;1.00;99.90;;;;;;8368777;28;20337;-69
2022/01/09 23:56:05;;;;;;;;;;;0.90;99.90;;;;;;8372005;28;19924;-69
